createdAt,value
2023-01-18T00:02:55.692Z,9.97
2023-01-18T00:12:58.977Z,9.47
2023-01-18T00:23:01.918Z,8.87
2023-01-18T00:33:04.186Z,10.20
2023-01-18T00:43:24.899Z,9.10
2023-01-18T00:53:27.307Z,9.33
2023-01-18T01:03:50.410Z,8.03
2023-01-18T01:14:11.127Z,7.60
2023-01-18T01:24:32.083Z,9.50
2023-01-18T01:34:34.258Z,8.60
2023-01-18T01:45:02.790Z,8.63
2023-01-18T01:55:13.777Z,8.87
2023-01-18T02:05:17.495Z,9.20
2023-01-18T02:15:21.914Z,8.40
2023-01-18T02:25:59.309Z,8.63
2023-01-18T02:36:02.851Z,9.47
2023-01-18T02:46:25.336Z,8.70
2023-01-18T02:56:41.559Z,9.00
2023-01-18T03:06:49.265Z,9.27
2023-01-18T03:17:04.756Z,8.73
2023-01-18T03:27:26.457Z,8.77
2023-01-18T03:37:38.687Z,8.53
2023-01-18T03:47:40.932Z,8.83
2023-01-18T03:57:55.857Z,8.60
2023-01-18T04:07:57.980Z,9.20
2023-01-18T04:18:00.172Z,9.80
2023-01-18T04:28:06.986Z,8.37
2023-01-18T04:38:09.106Z,9.03
2023-01-18T04:48:11.221Z,9.10
2023-01-18T04:58:13.792Z,9.67
2023-01-18T05:08:15.908Z,9.47
2023-01-18T05:18:18.036Z,9.10
2023-01-18T05:28:20.613Z,9.40
2023-01-18T05:38:23.510Z,9.67
2023-01-18T05:48:25.940Z,9.83
2023-01-18T05:58:28.795Z,10.27
2023-01-18T06:08:30.977Z,10.20
2023-01-18T06:18:33.689Z,9.77
2023-01-18T06:28:35.896Z,10.73
2023-01-18T06:38:38.168Z,11.53
2023-01-18T06:48:40.260Z,10.67
2023-01-18T06:58:44.788Z,10.77
2023-01-18T07:08:48.621Z,11.67
2023-01-18T07:18:50.919Z,11.50
2023-01-18T07:28:56.121Z,11.83
2023-01-18T07:38:58.336Z,11.10
2023-01-18T07:49:02.381Z,11.77
2023-01-18T07:59:04.766Z,11.23
2023-01-18T08:09:07.001Z,11.27
2023-01-18T08:19:09.110Z,12.20
2023-01-18T08:29:11.406Z,12.23
2023-01-18T08:39:15.022Z,12.37
2023-01-18T08:49:17.275Z,11.40
2023-01-18T08:59:20.028Z,11.57
2023-01-18T09:09:22.410Z,11.30
2023-01-18T09:19:24.513Z,10.60
2023-01-18T09:29:26.684Z,10.43
2023-01-18T09:39:28.764Z,10.97
2023-01-18T09:49:43.205Z,10.20
2023-01-18T09:59:56.556Z,12.23
2023-01-18T10:10:00.382Z,11.23
2023-01-18T10:20:28.278Z,11.50
2023-01-18T10:30:41.706Z,11.23
2023-01-18T10:40:49.383Z,11.57
2023-01-18T10:51:24.317Z,10.83
2023-01-18T11:01:36.146Z,11.30
2023-01-18T11:11:57.116Z,10.50
2023-01-18T11:21:59.923Z,11.57
2023-01-18T11:32:06.072Z,10.97
2023-01-18T11:42:11.479Z,11.30
2023-01-18T11:52:33.552Z,10.00
2023-01-18T12:03:24.101Z,9.77
2023-01-18T12:13:50.637Z,7.40
2023-01-18T12:24:18.664Z,7.10
2023-01-18T12:34:32.179Z,6.20
2023-01-18T12:44:58.566Z,5.10
2023-01-18T12:55:04.417Z,5.60
2023-01-18T13:05:20.488Z,5.80
2023-01-18T13:15:35.775Z,5.17
2023-01-18T13:25:46.318Z,5.20
2023-01-18T13:35:51.639Z,4.73
2023-01-18T13:46:07.091Z,4.70
2023-01-18T13:56:22.107Z,3.30
2023-01-18T14:06:31.941Z,4.30
2023-01-18T14:16:35.822Z,4.13
2023-01-18T14:26:40.368Z,4.33
2023-01-18T14:36:43.364Z,4.20
2023-01-18T14:47:13.829Z,5.20
2023-01-18T14:57:25.908Z,4.97
2023-01-18T15:07:34.415Z,5.67
2023-01-18T15:17:37.302Z,6.90
2023-01-18T15:27:40.055Z,6.03
2023-01-18T15:37:44.841Z,9.50
2023-01-18T15:47:50.669Z,30.53
2023-01-18T15:58:05.609Z,12.70
2023-01-18T16:08:18.493Z,8.03
2023-01-18T16:18:21.683Z,5.63
2023-01-18T16:28:24.570Z,6.20
2023-01-18T16:38:29.019Z,5.20
2023-01-18T16:48:33.585Z,4.73
2023-01-18T16:58:36.945Z,5.10
2023-01-18T17:08:40.287Z,4.30
2023-01-18T17:18:43.038Z,5.70
2023-01-18T17:28:46.381Z,4.00
2023-01-18T17:38:48.628Z,4.17
2023-01-18T17:48:50.936Z,4.53
2023-01-18T17:58:54.572Z,4.87
2023-01-18T18:08:56.897Z,6.73
2023-01-18T18:19:00.553Z,6.50
2023-01-18T18:29:02.904Z,5.13
2023-01-18T18:39:08.710Z,5.83
2023-01-18T18:49:11.044Z,5.37
2023-01-18T18:59:13.326Z,6.40
2023-01-18T19:09:15.644Z,6.73
2023-01-18T19:19:17.745Z,6.13
2023-01-18T19:29:20.215Z,6.00
2023-01-18T19:39:23.649Z,6.97
2023-01-18T19:49:26.142Z,5.40
2023-01-18T19:59:29.671Z,4.77
2023-01-18T20:09:42.893Z,4.53
2023-01-18T20:19:47.084Z,4.90
2023-01-18T20:29:49.446Z,4.63
2023-01-18T20:39:51.964Z,3.77
2023-01-18T20:49:55.342Z,4.40
2023-01-18T20:59:58.096Z,4.23
2023-01-18T21:10:02.504Z,4.13
2023-01-18T21:20:07.798Z,4.67
2023-01-18T21:30:11.297Z,4.03
2023-01-18T21:40:13.626Z,5.03
2023-01-18T21:50:34.896Z,4.87
2023-01-18T22:00:38.232Z,4.67
2023-01-18T22:10:40.355Z,4.97
2023-01-18T22:20:42.633Z,5.13
2023-01-18T22:30:46.393Z,5.13
2023-01-18T22:40:49.714Z,5.00
2023-01-18T22:50:56.446Z,5.73
2023-01-18T23:00:59.935Z,5.37
2023-01-18T23:11:02.238Z,6.20
2023-01-18T23:21:04.729Z,6.43
2023-01-18T23:31:11.687Z,5.77
2023-01-18T23:41:32.631Z,6.20
2023-01-18T23:51:53.371Z,5.97
